sensor_id;sensor_type;location;lat;lon;timestamp;P1;durP1;ratioP1;P2;durP2;ratioP2
31224;SDS011;17847;31.524;74.366;2022-07-21T00:01:53;1.20;;;0.70;;
31224;SDS011;17847;31.524;74.366;2022-07-21T00:04:35;0.98;;;0.60;;
31224;SDS011;17847;31.524;74.366;2022-07-21T00:07:22;1.65;;;1.23;;
31224;SDS011;17847;31.524;74.366;2022-07-21T00:10:04;1.63;;;1.00;;
31224;SDS011;17847;31.524;74.366;2022-07-21T00:12:53;1.77;;;0.95;;
31224;SDS011;17847;31.524;74.366;2022-07-21T00:15:35;3.05;;;0.73;;
31224;SDS011;17847;31.524;74.366;2022-07-21T00:18:30;1.73;;;0.60;;
31224;SDS011;17847;31.524;74.366;2022-07-21T00:21:12;1.88;;;0.60;;
31224;SDS011;17847;31.524;74.366;2022-07-21T00:24:00;1.50;;;0.60;;
31224;SDS011;17847;31.524;74.366;2022-07-21T00:26:42;1.50;;;0.60;;
31224;SDS011;17847;31.524;74.366;2022-07-21T00:29:30;1.00;;;0.60;;
31224;SDS011;17847;31.524;74.366;2022-07-21T00:32:06;1.75;;;0.60;;
31224;SDS011;17847;31.524;74.366;2022-07-21T00:35:02;1.27;;;0.65;;
31224;SDS011;17847;31.524;74.366;2022-07-21T00:37:59;3.35;;;0.77;;
31224;SDS011;17847;31.524;74.366;2022-07-21T00:40:35;2.00;;;0.90;;
31224;SDS011;17847;31.524;74.366;2022-07-21T00:43:30;2.58;;;0.82;;
31224;SDS011;17847;31.524;74.366;2022-07-21T00:46:06;3.85;;;0.90;;
31224;SDS011;17847;31.524;74.366;2022-07-21T00:49:01;1.08;;;0.68;;
31224;SDS011;17847;31.524;74.366;2022-07-21T00:51:37;0.98;;;0.60;;
31224;SDS011;17847;31.524;74.366;2022-07-21T00:54:32;1.48;;;0.60;;
31224;SDS011;17847;31.524;74.366;2022-07-21T00:57:08;1.45;;;0.60;;
31224;SDS011;17847;31.524;74.366;2022-07-21T01:00:05;1.15;;;0.90;;
31224;SDS011;17847;31.524;74.366;2022-07-21T01:02:41;3.05;;;1.75;;
31224;SDS011;17847;31.524;74.366;2022-07-21T01:05:36;2.22;;;0.60;;
31224;SDS011;17847;31.524;74.366;2022-07-21T01:08:12;0.88;;;0.50;;
31224;SDS011;17847;31.524;74.366;2022-07-21T01:11:07;0.82;;;0.40;;
31224;SDS011;17847;31.524;74.366;2022-07-21T01:13:49;2.63;;;0.70;;
31224;SDS011;17847;31.524;74.366;2022-07-21T01:16:37;1.10;;;0.63;;
31224;SDS011;17847;31.524;74.366;2022-07-21T01:19:20;1.02;;;0.50;;
31224;SDS011;17847;31.524;74.366;2022-07-21T01:22:08;0.95;;;0.50;;
31224;SDS011;17847;31.524;74.366;2022-07-21T01:24:44;1.25;;;0.70;;
31224;SDS011;17847;31.524;74.366;2022-07-21T01:27:39;1.15;;;0.52;;
31224;SDS011;17847;31.524;74.366;2022-07-21T01:30:15;1.00;;;0.45;;
31224;SDS011;17847;31.524;74.366;2022-07-21T01:33:10;0.75;;;0.40;;
31224;SDS011;17847;31.524;74.366;2022-07-21T01:36:05;0.50;;;0.50;;
31224;SDS011;17847;31.524;74.366;2022-07-21T01:38:48;0.85;;;0.57;;
31224;SDS011;17847;31.524;74.366;2022-07-21T01:41:55;0.93;;;0.50;;
31224;SDS011;17847;31.524;74.366;2022-07-21T01:44:39;1.67;;;0.52;;
31224;SDS011;17847;31.524;74.366;2022-07-21T01:47:27;1.67;;;0.85;;
31224;SDS011;17847;31.524;74.366;2022-07-21T01:50:09;4.82;;;0.68;;
31224;SDS011;17847;31.524;74.366;2022-07-21T01:53:06;1.92;;;0.60;;
31224;SDS011;17847;31.524;74.366;2022-07-21T01:55:42;1.25;;;0.45;;
31224;SDS011;17847;31.524;74.366;2022-07-21T01:58:37;1.80;;;0.82;;
31224;SDS011;17847;31.524;74.366;2022-07-21T02:01:19;1.65;;;0.70;;
31224;SDS011;17847;31.524;74.366;2022-07-21T02:04:08;3.67;;;0.85;;
31224;SDS011;17847;31.524;74.366;2022-07-21T02:06:50;3.47;;;1.10;;
31224;SDS011;17847;31.524;74.366;2022-07-21T02:09:38;1.52;;;0.95;;
31224;SDS011;17847;31.524;74.366;2022-07-21T02:12:20;2.20;;;1.10;;
31224;SDS011;17847;31.524;74.366;2022-07-21T02:15:08;2.83;;;0.98;;
31224;SDS011;17847;31.524;74.366;2022-07-21T02:17:44;2.17;;;0.95;;
31224;SDS011;17847;31.524;74.366;2022-07-21T02:20:39;3.03;;;1.90;;
31224;SDS011;17847;31.524;74.366;2022-07-21T02:23:15;1.50;;;0.80;;
31224;SDS011;17847;31.524;74.366;2022-07-21T02:26:10;1.33;;;0.93;;
31224;SDS011;17847;31.524;74.366;2022-07-21T02:28:46;1.92;;;0.98;;
31224;SDS011;17847;31.524;74.366;2022-07-21T02:31:41;2.15;;;1.00;;
31224;SDS011;17847;31.524;74.366;2022-07-21T02:34:17;2.45;;;1.10;;
31224;SDS011;17847;31.524;74.366;2022-07-21T02:37:11;1.60;;;1.13;;
31224;SDS011;17847;31.524;74.366;2022-07-21T02:39:53;2.33;;;1.20;;
31224;SDS011;17847;31.524;74.366;2022-07-21T02:42:41;1.92;;;1.00;;
31224;SDS011;17847;31.524;74.366;2022-07-21T02:45:23;1.65;;;1.08;;
31224;SDS011;17847;31.524;74.366;2022-07-21T02:48:12;1.38;;;0.85;;
31224;SDS011;17847;31.524;74.366;2022-07-21T02:50:48;1.48;;;1.17;;
31224;SDS011;17847;31.524;74.366;2022-07-21T02:53:47;1.40;;;1.00;;
31224;SDS011;17847;31.524;74.366;2022-07-21T02:56:23;2.20;;;0.85;;
31224;SDS011;17847;31.524;74.366;2022-07-21T02:59:18;2.00;;;1.30;;
31224;SDS011;17847;31.524;74.366;2022-07-21T03:01:54;2.10;;;1.45;;
31224;SDS011;17847;31.524;74.366;2022-07-21T03:04:49;1.77;;;1.40;;
31224;SDS011;17847;31.524;74.366;2022-07-21T03:07:31;1.80;;;1.20;;
31224;SDS011;17847;31.524;74.366;2022-07-21T03:10:19;1.67;;;1.20;;
31224;SDS011;17847;31.524;74.366;2022-07-21T03:13:01;2.10;;;1.40;;
31224;SDS011;17847;31.524;74.366;2022-07-21T03:15:49;1.65;;;1.20;;
31224;SDS011;17847;31.524;74.366;2022-07-21T03:18:31;2.00;;;1.40;;
31224;SDS011;17847;31.524;74.366;2022-07-21T03:21:19;3.05;;;1.48;;
31224;SDS011;17847;31.524;74.366;2022-07-21T03:24:01;2.83;;;1.40;;
31224;SDS011;17847;31.524;74.366;2022-07-21T03:26:50;1.58;;;1.30;;
31224;SDS011;17847;31.524;74.366;2022-07-21T03:29:40;2.65;;;1.48;;
31224;SDS011;17847;31.524;74.366;2022-07-21T03:32:28;2.05;;;1.00;;
31224;SDS011;17847;31.524;74.366;2022-07-21T03:35:16;2.45;;;1.20;;
31224;SDS011;17847;31.524;74.366;2022-07-21T03:38:12;2.65;;;1.30;;
31224;SDS011;17847;31.524;74.366;2022-07-21T03:40:55;1.88;;;1.40;;
31224;SDS011;17847;31.524;74.366;2022-07-21T03:43:52;1.73;;;1.20;;
31224;SDS011;17847;31.524;74.366;2022-07-21T03:46:34;1.83;;;1.00;;
31224;SDS011;17847;31.524;74.366;2022-07-21T03:49:21;1.55;;;1.20;;
31224;SDS011;17847;31.524;74.366;2022-07-21T03:52:04;2.33;;;1.10;;
31224;SDS011;17847;31.524;74.366;2022-07-21T03:54:52;1.50;;;1.20;;
31224;SDS011;17847;31.524;74.366;2022-07-21T03:57:50;2.40;;;1.55;;
31224;SDS011;17847;31.524;74.366;2022-07-21T04:00:40;2.42;;;1.70;;
31224;SDS011;17847;31.524;74.366;2022-07-21T04:03:23;2.15;;;1.52;;
31224;SDS011;17847;31.524;74.366;2022-07-21T04:06:13;3.25;;;2.20;;
31224;SDS011;17847;31.524;74.366;2022-07-21T04:08:55;5.18;;;2.92;;
31224;SDS011;17847;31.524;74.366;2022-07-21T04:11:42;4.65;;;2.70;;
31224;SDS011;17847;31.524;74.366;2022-07-21T04:14:25;6.93;;;3.85;;
31224;SDS011;17847;31.524;74.366;2022-07-21T04:17:20;5.25;;;3.40;;
31224;SDS011;17847;31.524;74.366;2022-07-21T04:20:03;7.60;;;5.07;;
31224;SDS011;17847;31.524;74.366;2022-07-21T04:22:51;6.32;;;4.90;;
31224;SDS011;17847;31.524;74.366;2022-07-21T04:25:34;6.13;;;4.68;;
31224;SDS011;17847;31.524;74.366;2022-07-21T04:28:22;4.50;;;4.10;;
31224;SDS011;17847;31.524;74.366;2022-07-21T04:31:05;3.55;;;3.20;;
31224;SDS011;17847;31.524;74.366;2022-07-21T04:33:52;4.50;;;3.53;;
31224;SDS011;17847;31.524;74.366;2022-07-21T04:36:40;4.35;;;3.13;;
31224;SDS011;17847;31.524;74.366;2022-07-21T04:39:36;3.15;;;2.58;;
31224;SDS011;17847;31.524;74.366;2022-07-21T04:42:25;3.30;;;2.25;;
31224;SDS011;17847;31.524;74.366;2022-07-21T04:45:15;3.42;;;2.58;;
31224;SDS011;17847;31.524;74.366;2022-07-21T04:47:57;2.55;;;1.95;;
31224;SDS011;17847;31.524;74.366;2022-07-21T04:50:45;2.63;;;1.80;;
31224;SDS011;17847;31.524;74.366;2022-07-21T04:53:27;2.95;;;2.25;;
31224;SDS011;17847;31.524;74.366;2022-07-21T04:56:22;2.72;;;2.38;;
31224;SDS011;17847;31.524;74.366;2022-07-21T04:59:04;2.30;;;2.03;;
31224;SDS011;17847;31.524;74.366;2022-07-21T05:01:52;4.22;;;2.58;;
31224;SDS011;17847;31.524;74.366;2022-07-21T05:04:34;3.50;;;2.63;;
31224;SDS011;17847;31.524;74.366;2022-07-21T05:07:22;3.72;;;2.67;;
31224;SDS011;17847;31.524;74.366;2022-07-21T05:10:04;2.78;;;2.53;;
31224;SDS011;17847;31.524;74.366;2022-07-21T05:12:53;2.95;;;2.58;;
31224;SDS011;17847;31.524;74.366;2022-07-21T05:15:35;5.35;;;2.53;;
31224;SDS011;17847;31.524;74.366;2022-07-21T05:18:23;3.85;;;2.88;;
31224;SDS011;17847;31.524;74.366;2022-07-21T05:21:05;4.05;;;2.40;;
31224;SDS011;17847;31.524;74.366;2022-07-21T05:23:53;3.42;;;2.70;;
31224;SDS011;17847;31.524;74.366;2022-07-21T05:26:35;3.38;;;2.67;;
31224;SDS011;17847;31.524;74.366;2022-07-21T05:29:23;3.65;;;2.90;;
31224;SDS011;17847;31.524;74.366;2022-07-21T05:32:05;3.60;;;3.05;;
31224;SDS011;17847;31.524;74.366;2022-07-21T05:34:53;5.38;;;3.15;;
31224;SDS011;17847;31.524;74.366;2022-07-21T05:37:48;4.90;;;4.28;;
31224;SDS011;17847;31.524;74.366;2022-07-21T05:40:43;3.30;;;3.00;;
31224;SDS011;17847;31.524;74.366;2022-07-21T05:43:25;3.80;;;3.30;;
31224;SDS011;17847;31.524;74.366;2022-07-21T05:46:13;3.38;;;3.03;;
31224;SDS011;17847;31.524;74.366;2022-07-21T05:48:55;4.50;;;3.53;;
31224;SDS011;17847;31.524;74.366;2022-07-21T05:51:43;4.03;;;3.60;;
31224;SDS011;17847;31.524;74.366;2022-07-21T05:54:26;5.20;;;3.67;;
31224;SDS011;17847;31.524;74.366;2022-07-21T05:57:21;5.50;;;4.88;;
31224;SDS011;17847;31.524;74.366;2022-07-21T06:00:04;5.55;;;4.97;;
31224;SDS011;17847;31.524;74.366;2022-07-21T06:02:52;5.32;;;4.70;;
31224;SDS011;17847;31.524;74.366;2022-07-21T06:05:34;6.18;;;4.95;;
31224;SDS011;17847;31.524;74.366;2022-07-21T06:08:22;5.43;;;4.88;;
31224;SDS011;17847;31.524;74.366;2022-07-21T06:11:05;5.88;;;4.82;;
31224;SDS011;17847;31.524;74.366;2022-07-21T06:13:53;5.97;;;5.03;;
31224;SDS011;17847;31.524;74.366;2022-07-21T06:16:35;5.15;;;4.65;;
31224;SDS011;17847;31.524;74.366;2022-07-21T06:19:22;6.50;;;5.45;;
31224;SDS011;17847;31.524;74.366;2022-07-21T06:22:05;6.10;;;5.25;;
31224;SDS011;17847;31.524;74.366;2022-07-21T06:25:00;5.90;;;4.93;;
31224;SDS011;17847;31.524;74.366;2022-07-21T06:27:43;6.75;;;4.68;;
31224;SDS011;17847;31.524;74.366;2022-07-21T06:30:31;7.82;;;5.35;;
31224;SDS011;17847;31.524;74.366;2022-07-21T06:33:14;5.97;;;4.97;;
31224;SDS011;17847;31.524;74.366;2022-07-21T06:36:09;6.25;;;5.03;;
31224;SDS011;17847;31.524;74.366;2022-07-21T06:39:04;6.35;;;5.43;;
31224;SDS011;17847;31.524;74.366;2022-07-21T06:42:02;7.03;;;5.93;;
31224;SDS011;17847;31.524;74.366;2022-07-21T06:44:44;6.10;;;5.50;;
31224;SDS011;17847;31.524;74.366;2022-07-21T06:47:32;6.40;;;5.80;;
31224;SDS011;17847;31.524;74.366;2022-07-21T06:50:14;6.78;;;5.65;;
31224;SDS011;17847;31.524;74.366;2022-07-21T06:53:02;5.75;;;5.18;;
31224;SDS011;17847;31.524;74.366;2022-07-21T06:55:45;7.55;;;5.40;;
31224;SDS011;17847;31.524;74.366;2022-07-21T06:58:42;6.78;;;5.00;;
31224;SDS011;17847;31.524;74.366;2022-07-21T07:01:24;6.60;;;5.53;;
31224;SDS011;17847;31.524;74.366;2022-07-21T07:04:20;5.05;;;4.65;;
31224;SDS011;17847;31.524;74.366;2022-07-21T07:06:56;5.53;;;5.03;;
31224;SDS011;17847;31.524;74.366;2022-07-21T07:09:50;5.53;;;5.00;;
31224;SDS011;17847;31.524;74.366;2022-07-21T07:12:34;6.28;;;5.05;;
31224;SDS011;17847;31.524;74.366;2022-07-21T07:15:43;6.93;;;5.78;;
31224;SDS011;17847;31.524;74.366;2022-07-21T07:18:26;7.13;;;5.45;;
31224;SDS011;17847;31.524;74.366;2022-07-21T07:21:21;6.95;;;6.25;;
31224;SDS011;17847;31.524;74.366;2022-07-21T07:24:03;7.65;;;6.90;;
31224;SDS011;17847;31.524;74.366;2022-07-21T07:26:51;7.10;;;6.40;;
31224;SDS011;17847;31.524;74.366;2022-07-21T07:29:33;7.90;;;7.10;;
31224;SDS011;17847;31.524;74.366;2022-07-21T07:32:20;9.00;;;8.10;;
31224;SDS011;17847;31.524;74.366;2022-07-21T07:35:02;8.38;;;7.47;;
31224;SDS011;17847;31.524;74.366;2022-07-21T07:37:50;8.52;;;7.63;;
31224;SDS011;17847;31.524;74.366;2022-07-21T07:40:45;7.47;;;6.78;;
31224;SDS011;17847;31.524;74.366;2022-07-21T07:43:27;6.45;;;5.85;;
31224;SDS011;17847;31.524;74.366;2022-07-21T07:46:15;6.05;;;5.45;;
31224;SDS011;17847;31.524;74.366;2022-07-21T07:48:57;5.72;;;5.22;;
31224;SDS011;17847;31.524;74.366;2022-07-21T07:51:57;6.22;;;5.65;;
31224;SDS011;17847;31.524;74.366;2022-07-21T07:54:33;6.60;;;5.93;;
31224;SDS011;17847;31.524;74.366;2022-07-21T07:57:28;5.97;;;5.38;;
31224;SDS011;17847;31.524;74.366;2022-07-21T08:00:12;5.97;;;5.47;;
31224;SDS011;17847;31.524;74.366;2022-07-21T08:03:21;5.90;;;5.40;;
31224;SDS011;17847;31.524;74.366;2022-07-21T08:05:57;6.88;;;5.55;;
31224;SDS011;17847;31.524;74.366;2022-07-21T08:08:53;4.60;;;4.30;;
31224;SDS011;17847;31.524;74.366;2022-07-21T08:11:35;4.72;;;4.32;;
31224;SDS011;17847;31.524;74.366;2022-07-21T08:14:23;4.47;;;4.07;;
31224;SDS011;17847;31.524;74.366;2022-07-21T08:16:59;5.85;;;5.18;;
31224;SDS011;17847;31.524;74.366;2022-07-21T08:19:53;5.25;;;4.72;;
31224;SDS011;17847;31.524;74.366;2022-07-21T08:22:29;5.20;;;4.70;;
31224;SDS011;17847;31.524;74.366;2022-07-21T08:25:24;5.05;;;4.63;;
31224;SDS011;17847;31.524;74.366;2022-07-21T08:28:06;5.85;;;4.63;;
31224;SDS011;17847;31.524;74.366;2022-07-21T08:30:54;12.30;;;5.40;;
31224;SDS011;17847;31.524;74.366;2022-07-21T08:33:36;4.97;;;4.60;;
31224;SDS011;17847;31.524;74.366;2022-07-21T08:36:24;5.45;;;4.95;;
31224;SDS011;17847;31.524;74.366;2022-07-21T08:39:01;5.57;;;5.05;;
31224;SDS011;17847;31.524;74.366;2022-07-21T08:41:56;5.50;;;5.00;;
31224;SDS011;17847;31.524;74.366;2022-07-21T08:44:38;4.68;;;4.05;;
31224;SDS011;17847;31.524;74.366;2022-07-21T08:47:26;6.07;;;4.57;;
31224;SDS011;17847;31.524;74.366;2022-07-21T08:50:02;5.30;;;4.80;;
31224;SDS011;17847;31.524;74.366;2022-07-21T08:52:57;6.55;;;4.82;;
31224;SDS011;17847;31.524;74.366;2022-07-21T08:55:39;8.60;;;4.05;;
31224;SDS011;17847;31.524;74.366;2022-07-21T08:58:27;4.03;;;3.33;;
31224;SDS011;17847;31.524;74.366;2022-07-21T09:01:10;4.00;;;3.70;;
31224;SDS011;17847;31.524;74.366;2022-07-21T09:04:19;3.28;;;2.78;;
31224;SDS011;17847;31.524;74.366;2022-07-21T09:07:10;3.00;;;2.80;;
31224;SDS011;17847;31.524;74.366;2022-07-21T09:10:00;2.90;;;2.60;;
31224;SDS011;17847;31.524;74.366;2022-07-21T09:12:49;3.20;;;2.03;;
31224;SDS011;17847;31.524;74.366;2022-07-21T09:15:37;1.90;;;1.65;;
31224;SDS011;17847;31.524;74.366;2022-07-21T09:18:21;1.50;;;1.40;;
31224;SDS011;17847;31.524;74.366;2022-07-21T09:21:16;1.38;;;1.20;;
31224;SDS011;17847;31.524;74.366;2022-07-21T09:24:14;1.58;;;1.42;;
31224;SDS011;17847;31.524;74.366;2022-07-21T09:27:04;1.30;;;1.20;;
31224;SDS011;17847;31.524;74.366;2022-07-21T09:29:47;2.05;;;1.27;;
31224;SDS011;17847;31.524;74.366;2022-07-21T09:32:35;1.20;;;1.10;;
31224;SDS011;17847;31.524;74.366;2022-07-21T09:35:17;1.23;;;1.08;;
31224;SDS011;17847;31.524;74.366;2022-07-21T09:38:12;1.63;;;1.13;;
31224;SDS011;17847;31.524;74.366;2022-07-21T09:41:08;1.30;;;1.20;;
31224;SDS011;17847;31.524;74.366;2022-07-21T09:44:03;2.60;;;1.77;;
31224;SDS011;17847;31.524;74.366;2022-07-21T09:46:45;1.45;;;1.30;;
31224;SDS011;17847;31.524;74.366;2022-07-21T09:49:33;1.23;;;1.13;;
31224;SDS011;17847;31.524;74.366;2022-07-21T09:52:39;1.35;;;1.17;;
31224;SDS011;17847;31.524;74.366;2022-07-21T09:55:27;2.15;;;1.45;;
31224;SDS011;17847;31.524;74.366;2022-07-21T09:58:23;1.73;;;1.63;;
31224;SDS011;17847;31.524;74.366;2022-07-21T10:01:05;2.60;;;1.80;;
31224;SDS011;17847;31.524;74.366;2022-07-21T10:03:54;5.93;;;2.15;;
31224;SDS011;17847;31.524;74.366;2022-07-21T10:06:37;2.05;;;1.73;;
31224;SDS011;17847;31.524;74.366;2022-07-21T10:09:25;2.30;;;1.90;;
31224;SDS011;17847;31.524;74.366;2022-07-21T10:12:08;2.67;;;2.22;;
31224;SDS011;17847;31.524;74.366;2022-07-21T10:14:56;2.47;;;2.13;;
31224;SDS011;17847;31.524;74.366;2022-07-21T10:17:32;3.90;;;2.25;;
31224;SDS011;17847;31.524;74.366;2022-07-21T10:20:27;8.27;;;2.42;;
31224;SDS011;17847;31.524;74.366;2022-07-21T10:23:34;2.58;;;2.38;;
31224;SDS011;17847;31.524;74.366;2022-07-21T10:26:22;2.95;;;2.42;;
31224;SDS011;17847;31.524;74.366;2022-07-21T10:29:05;4.13;;;2.70;;
31224;SDS011;17847;31.524;74.366;2022-07-21T10:31:53;3.03;;;2.50;;
31224;SDS011;17847;31.524;74.366;2022-07-21T10:34:49;3.38;;;2.67;;
31224;SDS011;17847;31.524;74.366;2022-07-21T10:46:31;3.45;;;2.78;;
31224;SDS011;17847;31.524;74.366;2022-07-21T10:49:40;2.95;;;2.75;;
31224;SDS011;17847;31.524;74.366;2022-07-21T10:55:37;4.15;;;2.80;;
31224;SDS011;17847;31.524;74.366;2022-07-21T11:04:10;2.92;;;2.33;;
31224;SDS011;17847;31.524;74.366;2022-07-21T11:07:07;4.90;;;2.00;;
31224;SDS011;17847;31.524;74.366;2022-07-21T11:13:10;2.20;;;1.63;;
31224;SDS011;17847;31.524;74.366;2022-07-21T11:15:54;3.60;;;1.50;;
31224;SDS011;17847;31.524;74.366;2022-07-21T11:18:49;2.60;;;1.30;;
31224;SDS011;17847;31.524;74.366;2022-07-21T11:21:34;1.33;;;1.23;;
31224;SDS011;17847;31.524;74.366;2022-07-21T11:24:22;2.55;;;1.55;;
31224;SDS011;17847;31.524;74.366;2022-07-21T11:26:59;2.10;;;1.20;;
31224;SDS011;17847;31.524;74.366;2022-07-21T11:29:55;1.58;;;1.42;;
31224;SDS011;17847;31.524;74.366;2022-07-21T11:32:31;2.90;;;1.50;;
31224;SDS011;17847;31.524;74.366;2022-07-21T11:35:25;1.73;;;1.23;;
31224;SDS011;17847;31.524;74.366;2022-07-21T11:38:02;3.05;;;1.10;;
31224;SDS011;17847;31.524;74.366;2022-07-21T11:41:14;2.33;;;1.42;;
31224;SDS011;17847;31.524;74.366;2022-07-21T11:44:10;1.73;;;1.17;;
31224;SDS011;17847;31.524;74.366;2022-07-21T11:46:54;4.05;;;1.38;;
31224;SDS011;17847;31.524;74.366;2022-07-21T11:49:43;5.50;;;1.55;;
31224;SDS011;17847;31.524;74.366;2022-07-21T11:52:26;3.10;;;1.40;;
31224;SDS011;17847;31.524;74.366;2022-07-21T11:55:21;2.28;;;1.70;;
31224;SDS011;17847;31.524;74.366;2022-07-21T11:58:12;3.17;;;1.58;;
31224;SDS011;17847;31.524;74.366;2022-07-21T12:01:04;4.28;;;1.70;;
31224;SDS011;17847;31.524;74.366;2022-07-21T12:03:48;3.58;;;1.65;;
31224;SDS011;17847;31.524;74.366;2022-07-21T12:06:37;1.95;;;1.58;;
31224;SDS011;17847;31.524;74.366;2022-07-21T12:09:19;5.82;;;1.67;;
31224;SDS011;17847;31.524;74.366;2022-07-21T12:12:14;2.00;;;1.80;;
31224;SDS011;17847;31.524;74.366;2022-07-21T12:14:56;5.78;;;1.45;;
31224;SDS011;17847;31.524;74.366;2022-07-21T12:17:46;5.32;;;2.13;;
31224;SDS011;17847;31.524;74.366;2022-07-21T12:20:30;3.03;;;1.60;;
31224;SDS011;17847;31.524;74.366;2022-07-21T12:23:26;4.50;;;2.05;;
31224;SDS011;17847;31.524;74.366;2022-07-21T12:26:19;1.98;;;1.67;;
31224;SDS011;17847;31.524;74.366;2022-07-21T12:29:27;3.55;;;1.88;;
31224;SDS011;17847;31.524;74.366;2022-07-21T12:32:03;2.80;;;1.83;;
31224;SDS011;17847;31.524;74.366;2022-07-21T12:34:58;3.17;;;1.67;;
31224;SDS011;17847;31.524;74.366;2022-07-21T12:41:13;3.00;;;1.95;;
31224;SDS011;17847;31.524;74.366;2022-07-21T12:44:10;8.50;;;2.70;;
31224;SDS011;17847;31.524;74.366;2022-07-21T12:46:53;4.78;;;2.55;;
31224;SDS011;17847;31.524;74.366;2022-07-21T12:50:01;2.33;;;2.10;;
31224;SDS011;17847;31.524;74.366;2022-07-21T12:52:55;3.90;;;2.30;;
31224;SDS011;17847;31.524;74.366;2022-07-21T12:55:43;7.82;;;2.17;;
31224;SDS011;17847;31.524;74.366;2022-07-21T12:58:25;4.68;;;2.10;;
31224;SDS011;17847;31.524;74.366;2022-07-21T13:01:14;4.82;;;2.20;;
31224;SDS011;17847;31.524;74.366;2022-07-21T13:03:57;3.38;;;2.00;;
31224;SDS011;17847;31.524;74.366;2022-07-21T13:06:52;3.47;;;2.38;;
31224;SDS011;17847;31.524;74.366;2022-07-21T13:09:28;4.53;;;2.53;;
31224;SDS011;17847;31.524;74.366;2022-07-21T13:12:22;6.88;;;2.63;;
31224;SDS011;17847;31.524;74.366;2022-07-21T13:15:05;3.78;;;2.28;;
31224;SDS011;17847;31.524;74.366;2022-07-21T13:18:00;4.03;;;2.13;;
31224;SDS011;17847;31.524;74.366;2022-07-21T13:20:42;2.97;;;2.05;;
31224;SDS011;17847;31.524;74.366;2022-07-21T13:23:32;5.43;;;2.00;;
31224;SDS011;17847;31.524;74.366;2022-07-21T13:26:14;3.55;;;2.00;;
31224;SDS011;17847;31.524;74.366;2022-07-21T13:29:02;4.65;;;2.13;;
31224;SDS011;17847;31.524;74.366;2022-07-21T13:31:40;4.80;;;2.30;;
31224;SDS011;17847;31.524;74.366;2022-07-21T13:34:35;5.30;;;2.08;;
31224;SDS011;17847;31.524;74.366;2022-07-21T13:37:38;7.85;;;2.63;;
31224;SDS011;17847;31.524;74.366;2022-07-21T13:40:26;3.90;;;2.88;;
31224;SDS011;17847;31.524;74.366;2022-07-21T13:43:28;2.63;;;2.28;;
31224;SDS011;17847;31.524;74.366;2022-07-21T13:46:25;6.97;;;3.13;;
31224;SDS011;17847;31.524;74.366;2022-07-21T13:49:21;8.27;;;3.05;;
31224;SDS011;17847;31.524;74.366;2022-07-21T13:52:03;5.95;;;3.25;;
31224;SDS011;17847;31.524;74.366;2022-07-21T13:54:51;5.15;;;3.10;;
31224;SDS011;17847;31.524;74.366;2022-07-21T13:57:33;5.88;;;2.92;;
31224;SDS011;17847;31.524;74.366;2022-07-21T14:00:21;5.22;;;3.83;;
31224;SDS011;17847;31.524;74.366;2022-07-21T14:03:04;5.47;;;3.42;;
31224;SDS011;17847;31.524;74.366;2022-07-21T14:05:58;3.83;;;3.42;;
31224;SDS011;17847;31.524;74.366;2022-07-21T14:08:40;4.82;;;3.63;;
31224;SDS011;17847;31.524;74.366;2022-07-21T14:11:28;4.88;;;3.97;;
31224;SDS011;17847;31.524;74.366;2022-07-21T14:14:11;4.55;;;3.83;;
31224;SDS011;17847;31.524;74.366;2022-07-21T14:17:09;5.78;;;4.18;;
31224;SDS011;17847;31.524;74.366;2022-07-21T14:19:52;6.28;;;4.82;;
31224;SDS011;17847;31.524;74.366;2022-07-21T14:22:41;6.13;;;4.88;;
31224;SDS011;17847;31.524;74.366;2022-07-21T14:25:23;5.22;;;4.72;;
31224;SDS011;17847;31.524;74.366;2022-07-21T14:28:11;6.95;;;5.03;;
31224;SDS011;17847;31.524;74.366;2022-07-21T14:30:53;5.38;;;4.70;;
31224;SDS011;17847;31.524;74.366;2022-07-21T14:33:48;8.55;;;5.28;;
31224;SDS011;17847;31.524;74.366;2022-07-21T14:36:30;6.07;;;5.13;;
31224;SDS011;17847;31.524;74.366;2022-07-21T14:39:18;8.80;;;5.32;;
31224;SDS011;17847;31.524;74.366;2022-07-21T14:42:01;7.47;;;5.75;;
31224;SDS011;17847;31.524;74.366;2022-07-21T14:44:50;11.63;;;5.43;;
31224;SDS011;17847;31.524;74.366;2022-07-21T14:47:53;8.30;;;5.82;;
31224;SDS011;17847;31.524;74.366;2022-07-21T14:50:29;7.07;;;5.93;;
31224;SDS011;17847;31.524;74.366;2022-07-21T14:53:23;6.95;;;6.00;;
31224;SDS011;17847;31.524;74.366;2022-07-21T14:56:06;7.03;;;6.32;;
31224;SDS011;17847;31.524;74.366;2022-07-21T14:58:54;12.55;;;6.68;;
31224;SDS011;17847;31.524;74.366;2022-07-21T15:01:37;11.27;;;6.70;;
31224;SDS011;17847;31.524;74.366;2022-07-21T15:04:31;7.80;;;6.22;;
31224;SDS011;17847;31.524;74.366;2022-07-21T15:07:07;8.20;;;7.18;;
31224;SDS011;17847;31.524;74.366;2022-07-21T15:10:02;10.80;;;6.85;;
31224;SDS011;17847;31.524;74.366;2022-07-21T15:12:40;8.52;;;6.85;;
31224;SDS011;17847;31.524;74.366;2022-07-21T15:15:35;12.60;;;6.85;;
31224;SDS011;17847;31.524;74.366;2022-07-21T15:18:18;11.45;;;7.65;;
31224;SDS011;17847;31.524;74.366;2022-07-21T15:21:06;10.55;;;8.32;;
31224;SDS011;17847;31.524;74.366;2022-07-21T15:23:48;10.05;;;8.48;;
31224;SDS011;17847;31.524;74.366;2022-07-21T15:26:43;18.23;;;10.80;;
31224;SDS011;17847;31.524;74.366;2022-07-21T15:29:18;18.08;;;8.73;;
31224;SDS011;17847;31.524;74.366;2022-07-21T15:32:13;12.23;;;8.55;;
31224;SDS011;17847;31.524;74.366;2022-07-21T15:34:56;16.58;;;9.25;;
31224;SDS011;17847;31.524;74.366;2022-07-21T15:37:51;11.52;;;8.13;;
31224;SDS011;17847;31.524;74.366;2022-07-21T15:40:33;10.40;;;9.27;;
31224;SDS011;17847;31.524;74.366;2022-07-21T15:43:21;11.43;;;9.05;;
31224;SDS011;17847;31.524;74.366;2022-07-21T15:45:57;11.70;;;8.73;;
31224;SDS011;17847;31.524;74.366;2022-07-21T15:48:52;10.57;;;8.32;;
31224;SDS011;17847;31.524;74.366;2022-07-21T15:51:28;15.55;;;8.80;;
31224;SDS011;17847;31.524;74.366;2022-07-21T15:54:27;17.75;;;8.80;;
31224;SDS011;17847;31.524;74.366;2022-07-21T15:57:23;15.30;;;9.30;;
31224;SDS011;17847;31.524;74.366;2022-07-21T16:00:19;11.55;;;9.45;;
31224;SDS011;17847;31.524;74.366;2022-07-21T16:02:55;16.30;;;9.73;;
31224;SDS011;17847;31.524;74.366;2022-07-21T16:05:50;13.43;;;9.18;;
31224;SDS011;17847;31.524;74.366;2022-07-21T16:08:34;12.27;;;9.13;;
31224;SDS011;17847;31.524;74.366;2022-07-21T16:11:21;14.80;;;9.00;;
31224;SDS011;17847;31.524;74.366;2022-07-21T16:14:03;10.10;;;8.45;;
31224;SDS011;17847;31.524;74.366;2022-07-21T16:16:50;11.63;;;9.05;;
31224;SDS011;17847;31.524;74.366;2022-07-21T16:19:33;11.40;;;9.32;;
31224;SDS011;17847;31.524;74.366;2022-07-21T16:22:20;14.38;;;9.98;;
31224;SDS011;17847;31.524;74.366;2022-07-21T16:25:02;16.88;;;9.68;;
31224;SDS011;17847;31.524;74.366;2022-07-21T16:27:58;12.52;;;10.10;;
31224;SDS011;17847;31.524;74.366;2022-07-21T16:30:34;13.73;;;10.85;;
31224;SDS011;17847;31.524;74.366;2022-07-21T16:33:28;13.70;;;10.57;;
31224;SDS011;17847;31.524;74.366;2022-07-21T16:36:04;11.13;;;9.95;;
31224;SDS011;17847;31.524;74.366;2022-07-21T16:39:02;12.57;;;10.05;;
31224;SDS011;17847;31.524;74.366;2022-07-21T16:41:45;14.57;;;10.63;;
31224;SDS011;17847;31.524;74.366;2022-07-21T16:44:33;10.35;;;9.23;;
31224;SDS011;17847;31.524;74.366;2022-07-21T16:47:22;12.13;;;10.35;;
31224;SDS011;17847;31.524;74.366;2022-07-21T16:50:17;15.57;;;11.77;;
31224;SDS011;17847;31.524;74.366;2022-07-21T16:52:53;14.02;;;11.50;;
31224;SDS011;17847;31.524;74.366;2022-07-21T16:55:35;11.68;;;9.15;;
31224;SDS011;17847;31.524;74.366;2022-07-21T16:58:23;11.65;;;9.43;;